sensor_id;sensor_type;location;lat;lon;timestamp;pressure;altitude;pressure_sealevel;temperature;humidity
48644;BME280;34928;37.302;-121.984;2023-05-16T00:03:49;101070.0;;;31.93;27.19
48644;BME280;34928;37.302;-121.984;2023-05-16T00:13:53;101060.0;;;32.02;27.06
48644;BME280;34928;37.302;-121.984;2023-05-16T00:23:57;101056.0;;;31.86;27.34
48644;BME280;34928;37.302;-121.984;2023-05-16T00:34:03;101057.0;;;32.03;27.20
48644;BME280;34928;37.302;-121.984;2023-05-16T00:44:08;101057.0;;;32.29;27.61
48644;BME280;34928;37.302;-121.984;2023-05-16T00:54:13;101052.0;;;31.87;27.43
48644;BME280;34928;37.302;-121.984;2023-05-16T01:04:18;101060.0;;;29.95;28.73
48644;BME280;34928;37.302;-121.984;2023-05-16T01:14:30;101057.0;;;29.33;29.76
48644;BME280;34928;37.302;-121.984;2023-05-16T01:24:53;101065.0;;;29.41;29.69
48644;BME280;34928;37.302;-121.984;2023-05-16T01:35:04;101070.0;;;29.56;29.62
48644;BME280;34928;37.302;-121.984;2023-05-16T01:45:11;101065.0;;;28.92;29.84
48644;BME280;34928;37.302;-121.984;2023-05-16T01:55:22;101075.0;;;29.20;29.43
48644;BME280;34928;37.302;-121.984;2023-05-16T02:05:33;101075.0;;;30.70;28.16
48644;BME280;34928;37.302;-121.984;2023-05-16T02:15:38;101078.0;;;31.10;27.93
48644;BME280;34928;37.302;-121.984;2023-05-16T02:25:44;101083.0;;;31.91;27.94
48644;BME280;34928;37.302;-121.984;2023-05-16T02:35:48;101090.0;;;31.33;27.12
48644;BME280;34928;37.302;-121.984;2023-05-16T02:45:52;101101.0;;;30.17;27.94
48644;BME280;34928;37.302;-121.984;2023-05-16T02:55:57;101098.0;;;30.38;27.46
48644;BME280;34928;37.302;-121.984;2023-05-16T03:06:03;101112.0;;;29.83;28.08
48644;BME280;34928;37.302;-121.984;2023-05-16T03:16:08;101121.0;;;29.37;28.92
48644;BME280;34928;37.302;-121.984;2023-05-16T03:26:13;101139.0;;;29.41;28.51
48644;BME280;34928;37.302;-121.984;2023-05-16T03:36:21;101152.0;;;29.78;28.65
48644;BME280;34928;37.302;-121.984;2023-05-16T03:46:28;101155.0;;;30.07;28.00
48644;BME280;34928;37.302;-121.984;2023-05-16T03:56:33;101164.0;;;30.71;27.36
48644;BME280;34928;37.302;-121.984;2023-05-16T04:06:38;101168.0;;;30.56;27.44
48644;BME280;34928;37.302;-121.984;2023-05-16T04:16:43;101185.0;;;30.62;27.17
48644;BME280;34928;37.302;-121.984;2023-05-16T04:26:48;101198.0;;;29.90;27.30
48644;BME280;34928;37.302;-121.984;2023-05-16T04:36:53;101201.0;;;30.42;27.37
48644;BME280;34928;37.302;-121.984;2023-05-16T04:46:58;101205.0;;;30.46;27.11
48644;BME280;34928;37.302;-121.984;2023-05-16T04:57:03;101212.0;;;30.46;27.32
48644;BME280;34928;37.302;-121.984;2023-05-16T05:07:08;101204.0;;;30.73;26.65
48644;BME280;34928;37.302;-121.984;2023-05-16T05:17:13;101210.0;;;29.10;28.36
48644;BME280;34928;37.302;-121.984;2023-05-16T05:27:17;101211.0;;;28.60;29.41
48644;BME280;34928;37.302;-121.984;2023-05-16T05:37:23;101203.0;;;28.51;29.98
48644;BME280;34928;37.302;-121.984;2023-05-16T05:47:33;101205.0;;;27.81;30.53
48644;BME280;34928;37.302;-121.984;2023-05-16T05:57:38;101206.0;;;27.89;30.75
48644;BME280;34928;37.302;-121.984;2023-05-16T06:07:44;101208.0;;;27.56;30.75
48644;BME280;34928;37.302;-121.984;2023-05-16T06:17:48;101198.0;;;28.52;29.42
48644;BME280;34928;37.302;-121.984;2023-05-16T06:27:52;101200.0;;;28.86;28.91
48644;BME280;34928;37.302;-121.984;2023-05-16T06:37:58;101203.0;;;29.31;28.37
48644;BME280;34928;37.302;-121.984;2023-05-16T06:48:03;101191.0;;;29.15;28.29
48644;BME280;34928;37.302;-121.984;2023-05-16T06:58:13;101195.0;;;28.93;28.65
48644;BME280;34928;37.302;-121.984;2023-05-16T07:08:19;101194.0;;;28.72;28.56
48644;BME280;34928;37.302;-121.984;2023-05-16T07:18:23;101192.0;;;28.81;28.72
48644;BME280;34928;37.302;-121.984;2023-05-16T07:28:27;101185.0;;;28.95;28.59
48644;BME280;34928;37.302;-121.984;2023-05-16T07:38:33;101181.0;;;29.02;28.12
48644;BME280;34928;37.302;-121.984;2023-05-16T07:48:38;101178.0;;;29.17;28.24
48644;BME280;34928;37.302;-121.984;2023-05-16T07:58:47;101180.0;;;29.13;28.16
48644;BME280;34928;37.302;-121.984;2023-05-16T08:08:53;101175.0;;;29.38;28.21
48644;BME280;34928;37.302;-121.984;2023-05-16T08:18:58;101166.0;;;28.82;28.43
48644;BME280;34928;37.302;-121.984;2023-05-16T08:29:03;101171.0;;;29.00;28.15
48644;BME280;34928;37.302;-121.984;2023-05-16T08:39:10;101161.0;;;29.35;28.01
48644;BME280;34928;37.302;-121.984;2023-05-16T08:49:13;101148.0;;;29.16;28.17
48644;BME280;34928;37.302;-121.984;2023-05-16T08:59:18;101151.0;;;29.18;28.07
48644;BME280;34928;37.302;-121.984;2023-05-16T09:09:23;101153.0;;;29.21;27.98
48644;BME280;34928;37.302;-121.984;2023-05-16T09:19:36;101158.0;;;28.91;28.30
48644;BME280;34928;37.302;-121.984;2023-05-16T09:29:44;101157.0;;;28.74;28.39
48644;BME280;34928;37.302;-121.984;2023-05-16T09:39:49;101146.0;;;28.67;28.40
48644;BME280;34928;37.302;-121.984;2023-05-16T09:49:54;101151.0;;;28.59;28.44
48644;BME280;34928;37.302;-121.984;2023-05-16T09:59:59;101149.0;;;28.76;28.22
48644;BME280;34928;37.302;-121.984;2023-05-16T10:10:06;101146.0;;;28.80;28.16
48644;BME280;34928;37.302;-121.984;2023-05-16T10:20:13;101133.0;;;28.41;28.53
48644;BME280;34928;37.302;-121.984;2023-05-16T10:30:18;101135.0;;;28.56;28.26
48644;BME280;34928;37.302;-121.984;2023-05-16T10:40:22;101140.0;;;28.59;28.14
48644;BME280;34928;37.302;-121.984;2023-05-16T10:50:34;101142.0;;;28.63;28.02
48644;BME280;34928;37.302;-121.984;2023-05-16T11:00:40;101135.0;;;28.54;28.10
48644;BME280;34928;37.302;-121.984;2023-05-16T11:10:48;101128.0;;;28.23;28.41
48644;BME280;34928;37.302;-121.984;2023-05-16T11:20:52;101126.0;;;28.62;28.45
48644;BME280;34928;37.302;-121.984;2023-05-16T11:30:58;101119.0;;;27.87;28.76
48644;BME280;34928;37.302;-121.984;2023-05-16T11:41:04;101112.0;;;28.24;28.56
48644;BME280;34928;37.302;-121.984;2023-05-16T11:51:09;101114.0;;;28.10;28.44
48644;BME280;34928;37.302;-121.984;2023-05-16T12:01:13;101109.0;;;28.76;28.11
48644;BME280;34928;37.302;-121.984;2023-05-16T12:11:18;101105.0;;;28.21;28.18
48644;BME280;34928;37.302;-121.984;2023-05-16T12:21:23;101105.0;;;28.37;28.11
48644;BME280;34928;37.302;-121.984;2023-05-16T12:31:28;101111.0;;;28.33;28.12
48644;BME280;34928;37.302;-121.984;2023-05-16T12:41:32;101114.0;;;28.10;28.66
48644;BME280;34928;37.302;-121.984;2023-05-16T12:51:49;101119.0;;;28.02;28.80
48644;BME280;34928;37.302;-121.984;2023-05-16T13:01:52;101121.0;;;27.70;28.86
48644;BME280;34928;37.302;-121.984;2023-05-16T13:11:58;101127.0;;;27.97;28.75
48644;BME280;34928;37.302;-121.984;2023-05-16T13:22:03;101129.0;;;28.09;28.18
48644;BME280;34928;37.302;-121.984;2023-05-16T13:32:09;101125.0;;;28.36;28.04
48644;BME280;34928;37.302;-121.984;2023-05-16T13:42:13;101125.0;;;28.33;27.98
48644;BME280;34928;37.302;-121.984;2023-05-16T13:52:23;101127.0;;;28.49;28.08
48644;BME280;34928;37.302;-121.984;2023-05-16T14:02:28;101131.0;;;27.92;28.45
48644;BME280;34928;37.302;-121.984;2023-05-16T14:12:33;101134.0;;;28.30;28.29
48644;BME280;34928;37.302;-121.984;2023-05-16T14:22:37;101132.0;;;28.14;28.05
48644;BME280;34928;37.302;-121.984;2023-05-16T14:32:42;101141.0;;;27.99;28.33
48644;BME280;34928;37.302;-121.984;2023-05-16T14:42:47;101146.0;;;28.00;28.24
48644;BME280;34928;37.302;-121.984;2023-05-16T14:52:53;101146.0;;;28.48;28.10
48644;BME280;34928;37.302;-121.984;2023-05-16T15:02:57;101147.0;;;28.41;27.75
48644;BME280;34928;37.302;-121.984;2023-05-16T15:13:03;101145.0;;;27.89;28.30
48644;BME280;34928;37.302;-121.984;2023-05-16T15:23:08;101135.0;;;28.20;28.02
48644;BME280;34928;37.302;-121.984;2023-05-16T15:33:13;101132.0;;;28.28;27.95
48644;BME280;34928;37.302;-121.984;2023-05-16T15:43:18;101125.0;;;28.21;28.09
48644;BME280;34928;37.302;-121.984;2023-05-16T15:53:23;101131.0;;;28.41;27.88
48644;BME280;34928;37.302;-121.984;2023-05-16T16:03:28;101126.0;;;28.36;27.77
48644;BME280;34928;37.302;-121.984;2023-05-16T16:13:33;101126.0;;;28.32;28.15
48644;BME280;34928;37.302;-121.984;2023-05-16T16:23:38;101123.0;;;28.38;28.45
48644;BME280;34928;37.302;-121.984;2023-05-16T16:33:43;101119.0;;;28.34;28.37
48644;BME280;34928;37.302;-121.984;2023-05-16T16:43:48;101111.0;;;28.38;28.18
48644;BME280;34928;37.302;-121.984;2023-05-16T16:53:53;101110.0;;;28.72;28.19
48644;BME280;34928;37.302;-121.984;2023-05-16T17:03:59;101105.0;;;26.80;31.16
48644;BME280;34928;37.302;-121.984;2023-05-16T17:14:03;101103.0;;;26.82;32.07
48644;BME280;34928;37.302;-121.984;2023-05-16T17:24:08;101101.0;;;26.70;32.14
48644;BME280;34928;37.302;-121.984;2023-05-16T17:34:13;101096.0;;;26.91;31.70
48644;BME280;34928;37.302;-121.984;2023-05-16T17:44:18;101091.0;;;26.74;32.26
48644;BME280;34928;37.302;-121.984;2023-05-16T17:54:23;101087.0;;;26.53;32.95
48644;BME280;34928;37.302;-121.984;2023-05-16T18:04:28;101074.0;;;27.03;31.98
48644;BME280;34928;37.302;-121.984;2023-05-16T18:14:33;101073.0;;;26.92;32.47
48644;BME280;34928;37.302;-121.984;2023-05-16T18:24:38;101068.0;;;27.03;32.71
48644;BME280;34928;37.302;-121.984;2023-05-16T18:34:43;101065.0;;;27.19;32.24
48644;BME280;34928;37.302;-121.984;2023-05-16T18:44:48;101065.0;;;28.81;30.72
48644;BME280;34928;37.302;-121.984;2023-05-16T18:54:53;101061.0;;;29.39;28.90
48644;BME280;34928;37.302;-121.984;2023-05-16T19:04:58;101057.0;;;29.86;28.41
48644;BME280;34928;37.302;-121.984;2023-05-16T19:15:03;101046.0;;;29.90;28.12
48644;BME280;34928;37.302;-121.984;2023-05-16T19:25:09;101035.0;;;30.30;27.90
48644;BME280;34928;37.302;-121.984;2023-05-16T19:35:12;101028.0;;;30.19;27.73
48644;BME280;34928;37.302;-121.984;2023-05-16T19:45:18;101021.0;;;30.53;27.67
48644;BME280;34928;37.302;-121.984;2023-05-16T19:55:23;101013.0;;;30.41;27.76
48644;BME280;34928;37.302;-121.984;2023-05-16T20:05:28;101007.0;;;30.56;27.58
48644;BME280;34928;37.302;-121.984;2023-05-16T20:15:33;100992.0;;;30.67;27.51
48644;BME280;34928;37.302;-121.984;2023-05-16T20:25:38;100976.0;;;30.80;27.46
48644;BME280;34928;37.302;-121.984;2023-05-16T20:35:43;100965.0;;;30.72;27.58
48644;BME280;34928;37.302;-121.984;2023-05-16T20:45:48;100952.0;;;31.01;27.44
48644;BME280;34928;37.302;-121.984;2023-05-16T20:55:53;100942.0;;;31.18;27.33
48644;BME280;34928;37.302;-121.984;2023-05-16T21:05:58;100933.0;;;31.40;27.23
48644;BME280;34928;37.302;-121.984;2023-05-16T21:16:03;100919.0;;;31.16;27.25
48644;BME280;34928;37.302;-121.984;2023-05-16T21:26:08;100909.0;;;31.16;27.32
48644;BME280;34928;37.302;-121.984;2023-05-16T21:36:13;100893.0;;;31.07;27.24
48644;BME280;34928;37.302;-121.984;2023-05-16T21:46:17;100876.0;;;31.14;27.61
48644;BME280;34928;37.302;-121.984;2023-05-16T21:56:23;100864.0;;;31.61;27.83
48644;BME280;34928;37.302;-121.984;2023-05-16T22:06:27;100858.0;;;32.19;27.12
48644;BME280;34928;37.302;-121.984;2023-05-16T22:16:33;100847.0;;;32.10;26.99
48644;BME280;34928;37.302;-121.984;2023-05-16T22:26:37;100836.0;;;32.29;26.80
48644;BME280;34928;37.302;-121.984;2023-05-16T22:36:43;100818.0;;;31.71;26.58
48644;BME280;34928;37.302;-121.984;2023-05-16T22:46:48;100806.0;;;31.07;26.06
48644;BME280;34928;37.302;-121.984;2023-05-16T22:56:53;100793.0;;;30.28;25.82
48644;BME280;34928;37.302;-121.984;2023-05-16T23:06:58;100786.0;;;30.98;26.13
48644;BME280;34928;37.302;-121.984;2023-05-16T23:17:04;100770.0;;;31.28;25.69
48644;BME280;34928;37.302;-121.984;2023-05-16T23:27:08;100759.0;;;31.78;25.44
48644;BME280;34928;37.302;-121.984;2023-05-16T23:37:12;100750.0;;;31.86;25.38
48644;BME280;34928;37.302;-121.984;2023-05-16T23:47:18;100737.0;;;32.35;25.17
48644;BME280;34928;37.302;-121.984;2023-05-16T23:57:22;100736.0;;;32.12;25.32
